Time;durP1;ratioP1;P1;durP2;ratioP2;P2;SDS_P1;SDS_P2;PMS_P1;PMS_P2;Temp;Humidity;BMP_temperature;BMP_pressure;BME280_temperature;BME280_humidity;BME280_pressure;Samples;Min_cycle;Max_cycle;Signal;HPM_P1;HPM_P2
2023/06/16 00:00:20;;;;;;;3.90;2.75;;;;;;;16.66;84.40;98364.94;4469908;32;20093;-65
2023/06/16 00:02:48;;;;;;;4.53;2.90;;;;;;;16.61;85.02;98362.03;4470259;32;20097;-65
2023/06/16 00:05:16;;;;;;;4.37;2.72;;;;;;;16.60;85.00;98368.31;4469830;32;20101;-65
2023/06/16 00:07:44;;;;;;;3.85;3.00;;;;;;;16.55;85.33;98360.09;4470026;32;20080;-65
2023/06/16 00:10:11;;;;;;;4.20;2.90;;;;;;;16.54;85.34;98363.78;4469559;32;20188;-65
2023/06/16 00:12:41;;;;;;;4.30;2.92;;;;;;;16.53;85.92;98362.13;4452711;32;20105;-65
2023/06/16 00:15:08;;;;;;;4.45;2.80;;;;;;;16.50;86.04;98356.22;4454227;32;20093;-65
2023/06/16 00:17:44;;;;;;;4.35;2.90;;;;;;;16.53;86.04;98362.94;4454153;32;20164;-65
2023/06/16 00:20:13;;;;;;;3.83;2.58;;;;;;;16.51;86.15;98359.69;4454116;32;20107;-65
2023/06/16 00:22:47;;;;;;;3.95;2.80;;;;;;;16.48;86.61;98363.50;4454339;32;20127;-65
2023/06/16 00:25:17;;;;;;;5.72;2.70;;;;;;;16.53;86.43;98356.84;4454339;32;20090;-65
2023/06/16 00:27:45;;;;;;;3.65;2.70;;;;;;;16.60;86.16;98352.47;4454242;32;20135;-65
2023/06/16 00:30:13;;;;;;;4.78;3.03;;;;;;;16.55;86.92;98347.72;4454249;32;20444;-65
2023/06/16 00:32:40;;;;;;;6.20;3.10;;;;;;;16.52;86.97;98349.91;4454070;32;20108;-66
2023/06/16 00:35:08;;;;;;;4.28;3.00;;;;;;;16.52;87.43;98352.56;4454228;32;20186;-66
2023/06/16 00:37:37;;;;;;;4.47;2.70;;;;;;;16.47;87.84;98348.66;4454273;32;20148;-65
2023/06/16 00:40:06;;;;;;;5.37;3.30;;;;;;;16.46;88.43;98348.84;4453814;32;20101;-66
2023/06/16 00:42:33;;;;;;;4.10;2.85;;;;;;;16.42;88.83;98345.72;4452855;32;20130;-65
2023/06/16 00:45:01;;;;;;;4.10;3.12;;;;;;;16.40;89.18;98345.09;4453951;32;20085;-66
2023/06/16 00:47:28;;;;;;;5.37;3.28;;;;;;;16.39;89.65;98346.09;4454306;32;20101;-65
2023/06/16 00:49:56;;;;;;;4.90;3.12;;;;;;;16.37;90.08;98340.19;4454080;32;20101;-65
2023/06/16 00:52:25;;;;;;;4.45;3.03;;;;;;;16.35;89.99;98344.00;4452747;32;20105;-65
2023/06/16 00:54:54;;;;;;;5.37;2.92;;;;;;;16.30;90.22;98332.16;4453922;32;20115;-65
2023/06/16 00:57:22;;;;;;;4.45;3.10;;;;;;;16.26;90.53;98335.34;4452635;32;20113;-66
2023/06/16 00:59:49;;;;;;;6.03;3.33;;;;;;;16.25;90.33;98331.09;4453913;32;20140;-65
2023/06/16 01:02:18;;;;;;;3.92;3.00;;;;;;;16.26;89.84;98335.34;4452519;32;20097;-66
2023/06/16 01:04:48;;;;;;;6.82;3.10;;;;;;;16.25;90.33;98331.91;4454280;32;20081;-65
2023/06/16 01:07:28;;;;;;;6.35;3.22;;;;;;;16.16;90.75;98334.84;4468061;32;20124;-65
2023/06/16 01:10:08;;;;;;;5.05;3.05;;;;;;;16.16;90.84;98338.31;4469438;32;20097;-65
2023/06/16 01:12:35;;;;;;;5.72;3.30;;;;;;;16.13;90.98;98342.13;4455297;32;20097;-65
2023/06/16 01:15:14;;;;;;;6.03;3.35;;;;;;;16.14;90.73;98338.47;4469815;32;20556;-65
2023/06/16 01:17:45;;;;;;;4.80;2.72;;;;;;;16.17;90.69;98332.03;4469524;32;20137;-66
2023/06/16 01:20:38;;;;;;;5.10;2.90;;;;;;;16.17;90.36;98326.75;4455559;32;20101;-65
2023/06/16 01:23:14;;;;;;;4.93;3.20;;;;;;;16.14;90.65;98322.63;4469417;32;20115;-65
2023/06/16 01:25:43;;;;;;;3.92;2.87;;;;;;;16.16;90.41;98324.28;4455530;32;20088;-65
2023/06/16 01:28:12;;;;;;;3.90;2.90;;;;;;;16.13;90.99;98322.81;4469213;32;20088;-65
2023/06/16 01:30:42;;;;;;;4.15;3.05;;;;;;;16.06;92.59;98324.53;4455099;32;20097;-65
2023/06/16 01:33:12;;;;;;;4.72;3.10;;;;;;;16.00;92.78;98314.72;4455487;32;20206;-65
2023/06/16 01:35:39;;;;;;;4.45;2.78;;;;;;;15.96;92.65;98312.44;4469106;32;20487;-65
2023/06/16 01:38:07;;;;;;;4.03;2.65;;;;;;;15.99;91.88;98313.91;4455363;32;20112;-65
2023/06/16 01:40:35;;;;;;;4.75;2.90;;;;;;;16.04;90.78;98314.16;4469074;32;20134;-66
2023/06/16 01:43:03;;;;;;;4.45;2.90;;;;;;;16.04;89.42;98316.00;4454985;32;20572;-65
2023/06/16 01:45:30;;;;;;;5.87;2.95;;;;;;;16.09;88.38;98319.72;4455028;32;20139;-65
2023/06/16 01:47:58;;;;;;;9.43;3.03;;;;;;;16.16;87.37;98316.34;4469040;32;20105;-65
2023/06/16 01:50:26;;;;;;;4.70;2.92;;;;;;;16.21;86.93;98309.47;4455046;32;20123;-65
2023/06/16 01:52:53;;;;;;;5.18;3.37;;;;;;;16.25;85.23;98312.59;4468346;32;20109;-65
2023/06/16 01:55:21;;;;;;;4.47;2.95;;;;;;;16.26;85.34;98314.22;4468978;32;20464;-65
2023/06/16 01:57:49;;;;;;;5.87;3.10;;;;;;;16.29;85.85;98308.56;4468957;32;20123;-65
2023/06/16 02:00:21;;;;;;;6.53;3.08;;;;;;;16.32;85.41;98305.53;4468991;32;20502;-65
2023/06/16 02:03:02;;;;;;;4.12;2.60;;;;;;;16.30;85.00;98308.37;4469145;32;20183;-65
2023/06/16 02:05:30;;;;;;;7.07;4.37;;;;;;;16.34;85.30;98305.38;4454756;32;20482;-65
2023/06/16 02:08:00;;;;;;;4.60;3.00;;;;;;;16.37;85.92;98311.13;4442022;32;20267;-65
2023/06/16 02:10:31;;;;;;;3.85;2.80;;;;;;;16.36;86.34;98309.47;4468750;32;20093;-66
2023/06/16 02:12:59;;;;;;;4.70;3.30;;;;;;;16.39;85.77;98306.44;4451698;32;20101;-65
2023/06/16 02:15:27;;;;;;;5.07;3.42;;;;;;;16.44;85.35;98304.09;4452985;32;20139;-65
2023/06/16 02:17:58;;;;;;;5.20;3.20;;;;;;;16.45;85.19;98300.41;4451903;32;20109;-65
2023/06/16 02:20:26;;;;;;;4.07;2.87;;;;;;;16.47;83.63;98303.72;4453082;32;20081;-65
2023/06/16 02:22:53;;;;;;;7.07;3.33;;;;;;;16.49;83.51;98303.53;4453022;32;20089;-65
2023/06/16 02:25:21;;;;;;;4.87;3.30;;;;;;;16.53;82.95;98298.66;4452982;32;20145;-66
2023/06/16 02:27:50;;;;;;;4.40;3.03;;;;;;;16.57;83.40;98302.59;4452991;32;20123;-65
2023/06/16 02:30:17;;;;;;;6.25;3.15;;;;;;;16.60;82.40;98296.91;4453135;32;20156;-65
2023/06/16 02:32:48;;;;;;;4.82;3.20;;;;;;;16.62;81.97;98294.91;4453099;32;20157;-66
2023/06/16 02:35:29;;;;;;;5.55;2.90;;;;;;;16.63;81.21;98286.78;4452936;32;20105;-65
2023/06/16 02:37:56;;;;;;;5.25;3.62;;;;;;;16.61;82.53;98288.00;4452787;32;20390;-66
2023/06/16 02:40:23;;;;;;;3.87;2.85;;;;;;;16.51;84.76;98298.84;4452887;32;20609;-65
2023/06/16 02:42:51;;;;;;;9.15;3.25;;;;;;;16.49;84.64;98299.03;4452701;32;20097;-65
2023/06/16 02:45:18;;;;;;;4.65;2.90;;;;;;;16.45;85.20;98295.13;4452688;32;20577;-65
2023/06/16 02:47:46;;;;;;;4.47;3.22;;;;;;;16.37;85.25;98297.91;4451382;32;20125;-65
2023/06/16 02:50:14;;;;;;;4.72;2.75;;;;;;;16.31;86.57;98301.28;4452940;32;20085;-65
2023/06/16 02:52:42;;;;;;;8.70;3.40;;;;;;;16.26;86.54;98296.56;4452596;32;20160;-65
2023/06/16 02:55:10;;;;;;;4.60;3.15;;;;;;;16.22;86.66;98297.12;4452722;32;20116;-65
2023/06/16 02:57:38;;;;;;;4.95;3.35;;;;;;;16.20;86.91;98296.47;4452701;32;20158;-65
2023/06/16 03:00:10;;;;;;;5.07;3.37;;;;;;;16.19;86.94;98293.00;4452585;32;20096;-65
2023/06/16 03:02:42;;;;;;;4.97;3.37;;;;;;;16.20;87.63;98299.94;4452739;32;20085;-66
2023/06/16 03:05:09;;;;;;;6.75;3.20;;;;;;;16.20;87.73;98299.09;4453765;32;20761;-65
2023/06/16 03:07:38;;;;;;;3.75;3.03;;;;;;;16.19;91.53;98294.84;4454524;32;20089;-65
2023/06/16 03:10:07;;;;;;;3.47;2.45;;;;;;;16.00;93.90;98310.22;4455963;32;20176;-65
2023/06/16 03:12:36;;;;;;;6.35;3.67;;;;;;;15.88;95.58;98309.06;4453331;32;20092;-65
2023/06/16 03:15:05;;;;;;;8.07;2.90;;;;;;;15.79;97.10;98306.53;4454945;32;20101;-65
2023/06/16 03:17:33;;;;;;;7.57;3.47;;;;;;;15.67;96.51;98305.31;4454626;32;20433;-65
2023/06/16 03:20:00;;;;;;;4.28;3.33;;;;;;;15.61;96.69;98298.91;4454874;32;20100;-65
2023/06/16 03:22:28;;;;;;;5.93;3.55;;;;;;;15.66;97.04;98298.38;4454870;32;20117;-65
2023/06/16 03:25:02;;;;;;;6.32;3.30;;;;;;;15.67;95.76;98297.38;4454657;32;20085;-65
2023/06/16 03:27:30;;;;;;;3.78;3.05;;;;;;;15.76;95.05;98298.94;4454896;32;20124;-65
2023/06/16 03:29:58;;;;;;;6.40;3.05;;;;;;;15.80;95.04;98302.06;4454841;32;20101;-65
2023/06/16 03:32:27;;;;;;;4.55;3.22;;;;;;;15.76;95.95;98304.22;4454755;32;20165;-65
2023/06/16 03:34:55;;;;;;;6.60;3.22;;;;;;;15.79;95.76;98303.88;4454446;32;20130;-65
2023/06/16 03:37:23;;;;;;;6.18;3.67;;;;;;;15.80;95.86;98299.41;4454443;32;20097;-65
2023/06/16 03:39:51;;;;;;;4.85;3.28;;;;;;;15.88;95.63;98303.78;4454531;32;20438;-65
2023/06/16 03:42:18;;;;;;;4.47;3.30;;;;;;;15.92;95.18;98307.69;4454571;32;20101;-65
2023/06/16 03:44:46;;;;;;;5.75;3.58;;;;;;;15.93;95.54;98307.53;4454567;32;20139;-65
2023/06/16 03:47:13;;;;;;;4.45;3.20;;;;;;;15.92;95.83;98307.69;4454488;32;20093;-65
2023/06/16 03:49:41;;;;;;;5.97;3.28;;;;;;;15.93;94.91;98312.00;4454465;32;20170;-65
2023/06/16 03:52:08;;;;;;;6.43;3.85;;;;;;;15.96;95.46;98307.16;4454594;32;20112;-65
2023/06/16 03:54:36;;;;;;;8.23;3.62;;;;;;;16.06;93.63;98304.22;4454284;32;20107;-65
2023/06/16 03:57:04;;;;;;;5.93;3.33;;;;;;;16.14;92.66;98298.84;4454441;32;20105;-65
2023/06/16 03:59:31;;;;;;;5.62;3.20;;;;;;;16.26;93.18;98299.19;4454221;32;20544;-65
2023/06/16 04:02:06;;;;;;;10.50;3.72;;;;;;;16.32;90.69;98301.09;4454352;32;20105;-65
2023/06/16 04:04:34;;;;;;;5.90;3.78;;;;;;;16.39;90.59;98303.00;4453324;32;20115;-65
2023/06/16 04:07:04;;;;;;;11.55;3.40;;;;;;;16.50;89.79;98300.69;4453256;32;20109;-65
2023/06/16 04:09:31;;;;;;;7.62;4.00;;;;;;;16.60;88.23;98302.22;4459063;32;20101;-65
2023/06/16 04:11:59;;;;;;;4.68;3.33;;;;;;;16.80;87.24;98303.22;4469721;32;20104;-65
2023/06/16 04:14:26;;;;;;;4.80;3.15;;;;;;;16.92;87.27;98302.75;4455225;32;20102;-65
2023/06/16 04:16:53;;;;;;;5.15;3.42;;;;;;;17.03;86.90;98311.00;4453740;32;20520;-66
2023/06/16 04:19:21;;;;;;;5.82;3.50;;;;;;;17.15;86.72;98310.47;4454150;32;20168;-65
2023/06/16 04:21:49;;;;;;;6.00;3.33;;;;;;;17.17;86.41;98311.94;4441751;32;20160;-65
2023/06/16 04:24:17;;;;;;;5.85;3.50;;;;;;;17.24;86.76;98311.19;4468356;32;20179;-65
2023/06/16 04:26:48;;;;;;;5.05;3.22;;;;;;;17.42;86.15;98308.06;4468196;32;20093;-65
2023/06/16 04:29:15;;;;;;;4.70;3.22;;;;;;;17.46;86.61;98309.31;4467764;32;20151;-65
2023/06/16 04:31:43;;;;;;;4.57;3.22;;;;;;;17.54;87.05;98307.31;4467983;32;20084;-65
2023/06/16 04:34:11;;;;;;;5.30;3.37;;;;;;;17.62;86.39;98313.50;4467196;32;20157;-65
2023/06/16 04:36:44;;;;;;;4.40;3.10;;;;;;;17.75;86.28;98308.28;4467131;32;20104;-65
2023/06/16 04:39:14;;;;;;;6.53;3.30;;;;;;;17.74;87.13;98315.41;4467661;32;20115;-65
2023/06/16 04:41:42;;;;;;;4.55;3.10;;;;;;;17.94;86.73;98311.25;4468589;32;20172;-65
2023/06/16 04:44:10;;;;;;;6.62;3.40;;;;;;;17.97;85.35;98305.56;4468036;32;20198;-65
2023/06/16 04:46:39;;;;;;;6.00;3.50;;;;;;;17.95;84.36;98307.59;4468862;32;20393;-65
2023/06/16 04:49:06;;;;;;;5.40;3.30;;;;;;;17.97;84.11;98300.28;4468010;32;20105;-65
2023/06/16 04:51:33;;;;;;;10.02;3.42;;;;;;;18.15;83.30;98302.41;4467880;32;20097;-65
2023/06/16 04:54:01;;;;;;;7.43;3.58;;;;;;;18.21;82.70;98310.41;4458012;32;20109;-65
2023/06/16 04:56:28;;;;;;;8.25;4.32;;;;;;;18.22;82.69;98306.72;4468504;32;20149;-65
2023/06/16 04:58:55;;;;;;;10.40;4.72;;;;;;;18.37;84.86;98301.25;4468066;32;20172;-65
2023/06/16 05:01:26;;;;;;;6.57;3.55;;;;;;;18.50;83.83;98305.81;4441773;32;20100;-64
2023/06/16 05:03:54;;;;;;;4.80;3.35;;;;;;;18.58;84.66;98302.16;4456000;32;20166;-65
2023/06/16 05:06:23;;;;;;;4.40;3.20;;;;;;;18.64;82.84;98301.34;4462857;32;20105;-65
2023/06/16 05:08:50;;;;;;;5.72;3.60;;;;;;;18.66;83.34;98309.09;4469160;32;20172;-65
2023/06/16 05:11:17;;;;;;;5.78;3.60;;;;;;;18.63;90.37;98311.13;4468145;32;20112;-65
2023/06/16 05:13:45;;;;;;;5.75;3.92;;;;;;;18.57;89.86;98301.31;4465284;32;20104;-65
2023/06/16 05:16:13;;;;;;;9.07;3.95;;;;;;;18.45;89.74;98313.53;4468790;32;20115;-64
2023/06/16 05:18:42;;;;;;;5.18;3.35;;;;;;;18.55;89.88;98308.66;4468452;32;20100;-65
2023/06/16 05:21:09;;;;;;;8.48;4.10;;;;;;;18.60;89.87;98311.53;4468943;32;20517;-65
2023/06/16 05:23:36;;;;;;;6.72;4.37;;;;;;;18.59;90.05;98315.22;4468135;32;20113;-65
2023/06/16 05:26:06;;;;;;;9.63;4.28;;;;;;;18.56;92.13;98320.09;4455947;32;20096;-65
2023/06/16 05:28:34;;;;;;;6.72;4.18;;;;;;;18.31;92.18;98317.16;4458606;32;20406;-65
2023/06/16 05:31:02;;;;;;;10.75;4.70;;;;;;;18.18;91.79;98315.25;4464661;32;20143;-65
2023/06/16 05:33:29;;;;;;;7.65;4.55;;;;;;;18.22;91.76;98314.66;4465086;32;20109;-65
2023/06/16 05:35:58;;;;;;;7.45;4.43;;;;;;;18.13;92.60;98315.84;4470192;32;20440;-65
2023/06/16 05:38:25;;;;;;;7.40;4.68;;;;;;;18.19;93.68;98324.84;4483323;32;20096;-66
2023/06/16 05:40:53;;;;;;;6.80;4.78;;;;;;;18.07;93.19;98324.59;4478667;32;20115;-66
2023/06/16 05:43:22;;;;;;;7.53;4.97;;;;;;;18.05;92.23;98326.63;4468862;32;20792;-67
2023/06/16 05:45:50;;;;;;;7.53;4.32;;;;;;;18.09;93.00;98330.50;4469069;32;20479;-66
2023/06/16 05:48:18;;;;;;;7.12;4.80;;;;;;;18.17;91.90;98327.69;4468763;32;20092;-66
2023/06/16 05:50:47;;;;;;;6.68;4.70;;;;;;;18.26;91.86;98331.00;4469142;32;20111;-65
2023/06/16 05:53:15;;;;;;;7.95;4.87;;;;;;;18.34;92.24;98330.03;4468590;32;20109;-65
2023/06/16 05:55:43;;;;;;;9.13;4.62;;;;;;;18.42;90.65;98320.03;4468508;32;20104;-66
2023/06/16 05:58:11;;;;;;;8.48;5.45;;;;;;;18.60;89.85;98319.47;4468076;32;20100;-65
2023/06/16 06:00:38;;;;;;;8.88;5.32;;;;;;;18.80;90.19;98318.72;4476294;32;20088;-66
2023/06/16 06:03:06;;;;;;;6.78;4.50;;;;;;;18.74;90.83;98319.50;4471772;32;20124;-66
2023/06/16 06:05:34;;;;;;;7.12;4.37;;;;;;;18.82;88.22;98318.50;4464823;32;20173;-66
2023/06/16 06:08:02;;;;;;;10.75;5.15;;;;;;;18.88;88.50;98323.87;4453129;32;20109;-66
2023/06/16 06:10:30;;;;;;;7.00;4.72;;;;;;;18.78;89.10;98316.25;4452285;32;20852;-66
2023/06/16 06:12:57;;;;;;;8.10;4.32;;;;;;;18.97;87.93;98320.00;4449509;32;20101;-65
2023/06/16 06:15:25;;;;;;;5.90;4.40;;;;;;;18.96;88.04;98321.03;4452465;32;20120;-66
2023/06/16 06:17:53;;;;;;;7.07;4.78;;;;;;;19.04;86.98;98322.66;4452881;32;20149;-66
2023/06/16 06:20:21;;;;;;;10.18;4.25;;;;;;;19.06;86.95;98319.81;4452154;32;20168;-66
2023/06/16 06:22:48;;;;;;;6.80;4.72;;;;;;;19.20;87.24;98331.25;4452990;32;20097;-66
2023/06/16 06:25:16;;;;;;;5.85;4.45;;;;;;;19.35;86.83;98326.56;4452809;32;20390;-66
2023/06/16 06:27:43;;;;;;;8.07;4.25;;;;;;;19.41;86.04;98328.41;4452579;32;20498;-66
2023/06/16 06:30:11;;;;;;;5.87;4.43;;;;;;;19.44;84.17;98325.34;4452202;32;20114;-66
2023/06/16 06:32:38;;;;;;;6.70;4.68;;;;;;;19.52;84.22;98328.81;4452352;32;20158;-66
2023/06/16 06:35:06;;;;;;;7.62;4.37;;;;;;;19.63;83.29;98336.97;4452178;32;20443;-66
2023/06/16 06:37:34;;;;;;;7.50;4.75;;;;;;;19.67;84.87;98332.87;4451997;32;20093;-66
2023/06/16 06:40:01;;;;;;;5.80;4.40;;;;;;;19.43;88.40;98341.47;4452921;32;20097;-65
2023/06/16 06:42:30;;;;;;;7.28;4.60;;;;;;;19.22;87.46;98334.53;4454925;32;20096;-65
2023/06/16 06:44:58;;;;;;;7.97;4.57;;;;;;;18.96;88.55;98347.56;4455128;32;20092;-65
2023/06/16 06:47:25;;;;;;;8.10;4.97;;;;;;;18.67;88.98;98342.56;4454501;32;20109;-65
2023/06/16 06:49:54;;;;;;;10.80;5.00;;;;;;;18.57;88.92;98353.56;4467275;32;20819;-65
2023/06/16 06:52:21;;;;;;;6.50;4.55;;;;;;;18.52;89.33;98348.03;4453115;32;20481;-65
2023/06/16 06:54:49;;;;;;;6.68;4.20;;;;;;;18.57;89.25;98354.37;4452403;32;20513;-65
2023/06/16 06:57:16;;;;;;;9.77;5.15;;;;;;;18.66;89.35;98356.84;4467574;32;20089;-65
2023/06/16 06:59:43;;;;;;;6.40;5.00;;;;;;;18.61;89.46;98355.63;4466255;32;20115;-64
2023/06/16 07:02:10;;;;;;;7.22;4.65;;;;;;;18.83;88.50;98352.81;4467443;32;20135;-63
2023/06/16 07:04:39;;;;;;;7.65;4.37;;;;;;;19.00;88.07;98352.47;4467857;32;20123;-64
2023/06/16 07:07:08;;;;;;;7.00;5.15;;;;;;;19.26;86.70;98349.84;4466705;32;20578;-64
2023/06/16 07:09:35;;;;;;;7.82;5.18;;;;;;;19.53;85.32;98347.22;4466058;32;20101;-65
2023/06/16 07:12:03;;;;;;;8.63;4.68;;;;;;;19.50;83.91;98350.28;4459016;32;20101;-65
2023/06/16 07:14:31;;;;;;;9.27;4.97;;;;;;;19.63;84.26;98347.59;4464445;32;20114;-64
2023/06/16 07:16:58;;;;;;;8.60;5.20;;;;;;;19.69;83.88;98353.91;4465777;32;20093;-65
2023/06/16 07:19:26;;;;;;;9.82;4.85;;;;;;;19.61;86.26;98349.63;4463754;32;20109;-64
2023/06/16 07:21:54;;;;;;;11.50;5.55;;;;;;;19.55;84.70;98352.31;4459429;32;20131;-65
2023/06/16 07:24:22;;;;;;;13.25;5.68;;;;;;;19.77;85.68;98358.19;4466028;32;20139;-64
2023/06/16 07:26:49;;;;;;;9.32;4.85;;;;;;;20.03;85.45;98358.19;4465207;32;20536;-65
2023/06/16 07:29:17;;;;;;;10.07;5.50;;;;;;;20.11;84.57;98361.66;4463257;32;20093;-66
2023/06/16 07:31:45;;;;;;;7.87;4.90;;;;;;;20.04;83.33;98364.31;4463744;32;20124;-66
2023/06/16 07:34:12;;;;;;;6.57;4.37;;;;;;;20.24;83.56;98364.25;4466061;32;20123;-65
2023/06/16 07:36:40;;;;;;;8.50;5.07;;;;;;;20.58;80.79;98370.28;4460783;32;20115;-65
2023/06/16 07:39:07;;;;;;;12.07;5.10;;;;;;;20.57;78.93;98373.97;4457231;32;20159;-65
2023/06/16 07:41:34;;;;;;;10.95;4.62;;;;;;;20.67;80.87;98363.72;4463479;32;20152;-63
2023/06/16 07:44:02;;;;;;;8.73;4.70;;;;;;;20.99;80.87;98362.94;4466164;32;21942;-63
2023/06/16 07:46:29;;;;;;;6.05;4.55;;;;;;;20.95;78.72;98364.38;4466832;32;20086;-63
2023/06/16 07:48:56;;;;;;;7.90;4.82;;;;;;;21.11;78.80;98363.88;4465802;32;20117;-63
2023/06/16 07:51:25;;;;;;;7.68;4.90;;;;;;;21.17;79.30;98365.69;4465936;32;20138;-63
2023/06/16 07:53:52;;;;;;;7.82;5.00;;;;;;;21.26;77.87;98366.25;4466195;32;20127;-63
2023/06/16 07:56:19;;;;;;;6.90;4.87;;;;;;;21.30;76.52;98372.75;4464094;32;20601;-63
2023/06/16 07:58:47;;;;;;;7.82;5.57;;;;;;;21.65;75.52;98369.66;4464272;32;20131;-64
2023/06/16 08:01:14;;;;;;;10.77;4.68;;;;;;;21.80;74.65;98371.94;4465572;32;20181;-63
2023/06/16 08:03:46;;;;;;;5.43;4.30;;;;;;;21.92;73.39;98375.56;4466320;32;20198;-63
2023/06/16 08:06:15;;;;;;;10.23;4.32;;;;;;;22.10;75.07;98366.72;4464022;32;20513;-63
2023/06/16 08:08:42;;;;;;;8.43;4.82;;;;;;;22.16;73.55;98370.37;4464415;32;20162;-64
2023/06/16 08:11:10;;;;;;;6.30;4.68;;;;;;;22.53;70.97;98369.56;4463867;32;20778;-64
2023/06/16 08:13:37;;;;;;;8.98;4.50;;;;;;;22.79;65.99;98371.88;4466198;32;20146;-63
2023/06/16 08:16:05;;;;;;;5.07;3.92;;;;;;;22.93;65.37;98358.34;4458521;32;20089;-64
2023/06/16 08:18:33;;;;;;;4.95;3.67;;;;;;;23.11;63.00;98362.84;4463503;32;20096;-63
2023/06/16 08:21:01;;;;;;;5.22;3.50;;;;;;;23.20;59.12;98364.97;4461721;32;20109;-64
2023/06/16 08:23:28;;;;;;;5.75;4.05;;;;;;;23.24;56.87;98369.84;4466690;32;20523;-64
2023/06/16 08:25:55;;;;;;;7.95;4.30;;;;;;;23.26;59.78;98368.59;4463550;32;20139;-64
2023/06/16 08:28:22;;;;;;;11.10;3.65;;;;;;;23.54;63.01;98375.94;4463260;32;20119;-65
2023/06/16 08:30:50;;;;;;;8.13;4.97;;;;;;;23.64;61.44;98363.88;4465100;32;20085;-64
2023/06/16 08:33:19;;;;;;;7.28;4.97;;;;;;;23.67;64.05;98368.75;4466502;32;20096;-65
2023/06/16 08:35:47;;;;;;;9.90;5.03;;;;;;;23.86;64.43;98369.47;4462263;32;20525;-65
2023/06/16 08:38:14;;;;;;;6.87;4.75;;;;;;;23.76;60.13;98374.56;4465452;32;20097;-65
2023/06/16 08:40:43;;;;;;;7.28;4.60;;;;;;;23.54;61.28;98369.78;4466602;32;20077;-65
2023/06/16 08:43:39;;;;;;;8.00;4.87;;;;;;;23.61;60.69;98369.69;4467289;32;20136;-65
2023/06/16 08:46:08;;;;;;;7.45;5.18;;;;;;;23.85;62.17;98371.34;4466041;32;20088;-65
2023/06/16 08:48:39;;;;;;;8.32;4.95;;;;;;;23.88;60.89;98370.06;4465971;32;20135;-65
2023/06/16 08:51:10;;;;;;;10.77;5.07;;;;;;;23.78;59.72;98372.47;4468242;32;20072;-65
2023/06/16 08:53:38;;;;;;;9.95;5.70;;;;;;;23.85;62.08;98371.34;4466177;32;20101;-65
2023/06/16 08:56:07;;;;;;;8.43;4.97;;;;;;;23.71;62.48;98375.28;4456837;32;20147;-65
2023/06/16 08:58:35;;;;;;;6.55;5.45;;;;;;;23.42;62.25;98374.28;4466345;32;20121;-65
2023/06/16 09:01:02;;;;;;;8.20;6.07;;;;;;;23.73;65.52;98371.28;4456591;32;20537;-65
2023/06/16 09:03:33;;;;;;;6.95;5.40;;;;;;;23.51;65.43;98371.06;4466097;32;20146;-65
2023/06/16 09:06:02;;;;;;;7.40;5.65;;;;;;;23.70;62.66;98373.62;4466033;32;20183;-65
2023/06/16 09:08:29;;;;;;;7.65;5.30;;;;;;;23.57;64.45;98363.97;4460966;32;20204;-65
2023/06/16 09:10:57;;;;;;;8.43;4.85;;;;;;;23.52;64.50;98372.69;4464642;32;20399;-65
2023/06/16 09:13:26;;;;;;;10.77;5.87;;;;;;;23.53;63.64;98371.66;4465988;32;20124;-65
2023/06/16 09:15:56;;;;;;;12.65;5.40;;;;;;;23.51;64.04;98368.41;4466582;32;20141;-65
2023/06/16 09:18:36;;;;;;;7.87;5.60;;;;;;;23.39;63.21;98373.72;4464495;32;20199;-65
2023/06/16 09:21:08;;;;;;;14.38;5.68;;;;;;;23.41;62.85;98370.81;4457961;32;20166;-65
2023/06/16 09:23:35;;;;;;;8.93;4.97;;;;;;;23.43;63.93;98374.06;4464101;32;20123;-65
2023/06/16 09:26:12;;;;;;;12.27;4.78;;;;;;;23.30;60.80;98379.63;4464010;32;20084;-65
2023/06/16 09:28:40;;;;;;;11.65;5.20;;;;;;;23.64;61.81;98375.38;4461582;32;20530;-65
2023/06/16 09:31:11;;;;;;;9.23;4.78;;;;;;;23.70;60.64;98370.97;4465392;32;20398;-65
2023/06/16 09:33:40;;;;;;;8.27;4.55;;;;;;;23.88;64.31;98368.19;4463680;32;20112;-65
2023/06/16 09:36:09;;;;;;;7.18;4.90;;;;;;;24.18;59.48;98369.06;4465385;32;20104;-65
2023/06/16 09:38:37;;;;;;;7.60;4.45;;;;;;;23.97;60.29;98374.00;4464914;32;20255;-65
2023/06/16 09:41:15;;;;;;;5.62;4.62;;;;;;;24.17;59.68;98367.47;4466023;32;20087;-65
2023/06/16 09:43:43;;;;;;;9.02;5.15;;;;;;;24.26;59.79;98358.03;4465209;32;20137;-65
2023/06/16 09:46:12;;;;;;;11.65;4.82;;;;;;;23.88;61.25;98364.72;4464697;32;20100;-65
2023/06/16 09:48:50;;;;;;;9.93;4.90;;;;;;;24.09;61.45;98357.94;4463456;32;20093;-66
2023/06/16 09:51:21;;;;;;;6.68;4.20;;;;;;;24.36;59.15;98360.09;4465978;32;20166;-65
2023/06/16 09:53:49;;;;;;;7.32;4.65;;;;;;;24.38;59.33;98358.00;4465902;32;20456;-65
2023/06/16 09:56:17;;;;;;;6.32;4.30;;;;;;;24.58;57.57;98357.59;4466349;32;20122;-65
2023/06/16 09:58:46;;;;;;;7.35;4.10;;;;;;;24.16;59.86;98350.56;4462858;32;20101;-65
2023/06/16 10:01:14;;;;;;;10.38;4.55;;;;;;;24.25;58.66;98351.03;4465365;32;20105;-65
2023/06/16 10:03:43;;;;;;;7.12;5.20;;;;;;;24.35;58.87;98351.25;4464431;32;20790;-65
2023/06/16 10:06:18;;;;;;;7.50;4.65;;;;;;;24.11;60.03;98352.34;4464851;32;20544;-65
2023/06/16 10:08:47;;;;;;;9.10;4.97;;;;;;;23.97;60.79;98349.09;4464512;32;20465;-64
2023/06/16 10:11:16;;;;;;;7.53;5.05;;;;;;;23.95;60.64;98346.66;4464879;32;20052;-64
2023/06/16 10:13:50;;;;;;;12.52;5.05;;;;;;;24.02;60.14;98338.50;4452004;32;20117;-65
2023/06/16 10:16:21;;;;;;;7.65;4.30;;;;;;;23.80;59.71;98346.28;4450167;32;20298;-65
2023/06/16 10:18:49;;;;;;;7.78;4.75;;;;;;;23.73;59.66;98344.56;4459812;32;20111;-65
2023/06/16 10:21:18;;;;;;;12.93;4.87;;;;;;;23.51;60.77;98344.34;4460388;32;20473;-64
2023/06/16 10:23:45;;;;;;;7.70;4.75;;;;;;;23.53;60.76;98350.25;4455274;32;20100;-65
2023/06/16 10:26:13;;;;;;;8.95;4.75;;;;;;;23.85;60.63;98344.59;4468582;32;20155;-65
2023/06/16 10:28:44;;;;;;;7.72;4.40;;;;;;;23.60;60.31;98352.00;4467911;32;20122;-65
2023/06/16 10:31:12;;;;;;;10.25;4.55;;;;;;;23.94;59.22;98352.25;4467119;32;20103;-64
2023/06/16 10:33:54;;;;;;;9.10;4.50;;;;;;;23.87;57.47;98339.81;4467542;32;20469;-64
2023/06/16 10:36:29;;;;;;;7.30;4.28;;;;;;;24.19;58.32;98339.41;4467823;32;20159;-64
2023/06/16 10:39:01;;;;;;;10.60;4.80;;;;;;;24.37;58.17;98351.00;4459966;32;20073;-65
2023/06/16 10:41:31;;;;;;;7.30;4.65;;;;;;;24.61;58.20;98347.22;4458885;32;20093;-64
2023/06/16 10:44:21;;;;;;;6.55;4.87;;;;;;;23.70;57.38;98347.69;4460325;32;20109;-64
2023/06/16 10:47:11;;;;;;;6.87;4.82;;;;;;;23.84;58.76;98337.56;4462241;32;20114;-66
2023/06/16 10:49:50;;;;;;;10.30;4.47;;;;;;;23.74;57.59;98334.69;4461569;32;20135;-66
2023/06/16 10:52:42;;;;;;;9.68;4.80;;;;;;;23.87;58.75;98342.47;4461807;32;20442;-65
2023/06/16 10:55:27;;;;;;;6.93;4.47;;;;;;;23.94;57.66;98330.84;4468035;32;20093;-64
2023/06/16 10:58:18;;;;;;;6.90;4.90;;;;;;;23.94;58.19;98341.53;4465092;32;20088;-66
2023/06/16 11:01:05;;;;;;;5.50;4.18;;;;;;;23.75;56.99;98341.63;4463518;32;20101;-66
2023/06/16 11:03:34;;;;;;;6.87;4.90;;;;;;;23.84;58.86;98337.56;4467736;32;20150;-66
2023/06/16 11:06:02;;;;;;;6.95;4.78;;;;;;;24.13;58.60;98335.00;4466564;32;20123;-66
2023/06/16 11:08:30;;;;;;;6.97;4.57;;;;;;;24.19;56.84;98334.03;4471862;32;20100;-65
2023/06/16 11:11:02;;;;;;;5.93;4.70;;;;;;;24.21;56.38;98326.63;4469991;32;20160;-66
2023/06/16 11:13:33;;;;;;;6.57;4.95;;;;;;;24.35;55.86;98332.50;4463065;32;20115;-66
2023/06/16 11:16:01;;;;;;;5.35;4.30;;;;;;;24.55;55.41;98331.28;4457045;32;20909;-65
2023/06/16 11:18:31;;;;;;;6.22;4.12;;;;;;;24.50;52.85;98329.31;4466185;32;20539;-65
2023/06/16 11:21:00;;;;;;;7.22;4.90;;;;;;;24.52;53.28;98329.88;4463549;32;20101;-65
2023/06/16 11:23:28;;;;;;;6.85;5.03;;;;;;;24.96;53.95;98321.31;4462486;32;20100;-65
2023/06/16 11:26:26;;;;;;;6.32;5.05;;;;;;;25.04;51.87;98325.47;4458758;32;20093;-65
2023/06/16 11:28:53;;;;;;;8.65;5.30;;;;;;;24.83;54.31;98317.09;4401345;32;20464;-65
2023/06/16 11:31:20;;;;;;;6.85;5.12;;;;;;;24.67;55.56;98312.50;4397122;32;21063;-65
2023/06/16 11:33:48;;;;;;;8.15;4.65;;;;;;;24.86;53.00;98315.78;4414190;32;20102;-66
2023/06/16 11:36:19;;;;;;;9.25;4.82;;;;;;;24.85;52.47;98309.63;4416232;32;20194;-66
2023/06/16 11:38:51;;;;;;;6.68;4.97;;;;;;;24.75;51.98;98309.44;4409900;32;20557;-65
2023/06/16 11:41:23;;;;;;;6.43;4.62;;;;;;;24.36;52.58;98307.38;4405204;32;20187;-66